createdAt,value
2018-05-29T00:01:04.581Z,73.49
2018-05-29T00:03:32.709Z,73.51
2018-05-29T00:06:00.814Z,73.54
2018-05-29T00:08:28.954Z,73.49
2018-05-29T00:10:57.056Z,73.60
2018-05-29T00:13:25.236Z,73.43
2018-05-29T00:15:53.615Z,73.63
2018-05-29T00:18:21.743Z,73.75
2018-05-29T00:20:49.875Z,73.61
2018-05-29T00:23:17.978Z,73.73
2018-05-29T00:25:46.124Z,73.64
2018-05-29T00:28:14.235Z,73.73
2018-05-29T00:30:42.349Z,73.88
2018-05-29T00:33:10.461Z,74.19
2018-05-29T00:35:38.577Z,73.82
2018-05-29T00:38:06.712Z,74.10
2018-05-29T00:40:34.832Z,74.20
2018-05-29T00:43:02.939Z,74.74
2018-05-29T00:45:31.063Z,74.81
2018-05-29T00:47:59.225Z,75.06
2018-05-29T00:50:27.360Z,75.10
2018-05-29T00:52:55.469Z,75.48
2018-05-29T00:55:35.553Z,75.50
2018-05-29T00:58:03.741Z,75.59
2018-05-29T01:00:31.844Z,76.23
2018-05-29T01:03:00.012Z,75.96
2018-05-29T01:05:28.148Z,76.38
2018-05-29T01:07:56.296Z,76.56
2018-05-29T01:10:24.410Z,76.98
2018-05-29T01:12:52.579Z,77.49
2018-05-29T01:15:20.678Z,77.60
2018-05-29T01:17:48.792Z,77.77
2018-05-29T01:20:16.923Z,78.21
2018-05-29T01:22:45.042Z,78.26
2018-05-29T01:25:13.176Z,78.22
2018-05-29T01:27:41.325Z,78.24
2018-05-29T01:30:09.446Z,78.53
2018-05-29T01:32:37.565Z,78.40
2018-05-29T01:35:05.726Z,79.73
2018-05-29T01:37:33.833Z,79.59
2018-05-29T01:40:01.987Z,79.55
2018-05-29T01:42:30.090Z,79.37
2018-05-29T01:44:58.232Z,78.96
2018-05-29T01:47:26.362Z,79.01
2018-05-29T01:49:54.594Z,78.88
2018-05-29T01:52:22.728Z,78.58
2018-05-29T01:54:50.860Z,78.78
2018-05-29T01:57:19.016Z,78.78
2018-05-29T01:59:47.154Z,79.62
2018-05-29T02:02:15.301Z,79.61
2018-05-29T02:04:43.417Z,79.26
2018-05-29T02:07:11.558Z,79.23
2018-05-29T02:09:39.679Z,79.00
2018-05-29T02:12:07.782Z,79.36
2018-05-29T02:14:35.930Z,79.66
2018-05-29T02:17:04.056Z,79.33
2018-05-29T02:19:32.188Z,79.44
2018-05-29T02:22:00.322Z,79.16
2018-05-29T02:24:28.483Z,78.88
2018-05-29T02:26:56.570Z,78.68
2018-05-29T02:29:24.997Z,79.13
2018-05-29T02:31:53.102Z,79.10
2018-05-29T02:34:21.250Z,79.37
2018-05-29T02:36:49.366Z,79.30
2018-05-29T02:39:17.505Z,79.68
2018-05-29T02:41:45.632Z,79.77
2018-05-29T02:44:13.776Z,79.59
2018-05-29T02:46:41.914Z,80.09
2018-05-29T02:49:10.072Z,80.70
2018-05-29T02:51:38.216Z,81.07
2018-05-29T02:54:06.326Z,81.38
2018-05-29T02:56:34.462Z,81.99
2018-05-29T02:59:02.609Z,82.04
2018-05-29T03:01:30.745Z,82.83
2018-05-29T03:03:58.874Z,82.94
2018-05-29T03:06:27.006Z,83.07
2018-05-29T03:08:55.362Z,83.11
2018-05-29T03:11:23.490Z,82.92
2018-05-29T03:13:51.614Z,82.74
2018-05-29T03:16:19.752Z,82.39
2018-05-29T03:18:47.885Z,82.40
2018-05-29T03:21:16.041Z,82.28
2018-05-29T03:23:44.182Z,82.55
2018-05-29T03:26:12.315Z,82.60
2018-05-29T03:28:40.438Z,82.37
2018-05-29T03:31:08.589Z,82.74
2018-05-29T03:33:36.717Z,82.69
2018-05-29T03:36:04.853Z,82.47
2018-05-29T03:38:33.009Z,82.38
2018-05-29T03:41:01.141Z,82.94
2018-05-29T03:43:29.261Z,83.27
2018-05-29T03:45:57.376Z,83.39
2018-05-29T03:48:25.778Z,83.53
2018-05-29T03:50:53.884Z,83.56
2018-05-29T03:53:22.031Z,83.71
2018-05-29T03:55:50.162Z,83.52
2018-05-29T03:58:18.310Z,83.77
2018-05-29T04:00:46.485Z,83.73
2018-05-29T04:03:14.645Z,84.09
2018-05-29T04:05:42.759Z,84.48
2018-05-29T04:08:10.901Z,83.79
2018-05-29T04:10:39.019Z,83.08
2018-05-29T04:13:07.151Z,83.37
2018-05-29T04:15:35.285Z,82.98
2018-05-29T04:18:03.415Z,82.95
2018-05-29T04:20:31.541Z,82.20
2018-05-29T04:22:59.979Z,82.41
2018-05-29T04:25:28.239Z,82.72
2018-05-29T04:27:56.401Z,82.33
2018-05-29T04:30:24.556Z,82.08
2018-05-29T04:32:52.673Z,82.27
2018-05-29T04:35:20.794Z,82.34
2018-05-29T04:37:48.912Z,82.38
2018-05-29T04:40:17.033Z,82.24
2018-05-29T04:42:45.173Z,83.35
2018-05-29T04:45:13.295Z,83.21
2018-05-29T04:47:41.457Z,82.96
2018-05-29T04:50:09.586Z,82.92
2018-05-29T04:52:37.720Z,83.32
2018-05-29T04:55:05.843Z,82.73
2018-05-29T04:57:34.020Z,82.48
2018-05-29T05:00:02.123Z,82.12
2018-05-29T05:02:30.377Z,81.95
2018-05-29T05:04:58.454Z,82.02
2018-05-29T05:07:26.593Z,82.38
2018-05-29T05:09:54.713Z,81.67
2018-05-29T05:12:22.856Z,81.29
2018-05-29T05:14:50.985Z,80.94
2018-05-29T05:17:19.103Z,80.56
2018-05-29T05:19:47.232Z,79.63
2018-05-29T05:22:15.408Z,79.44
2018-05-29T05:24:43.541Z,79.28
2018-05-29T05:27:11.672Z,79.42
2018-05-29T05:29:39.813Z,78.63
2018-05-29T05:32:07.991Z,78.45
2018-05-29T05:34:36.101Z,78.98
2018-05-29T05:37:04.272Z,78.75
2018-05-29T05:39:32.381Z,78.72
2018-05-29T05:42:00.737Z,78.50
2018-05-29T05:44:28.874Z,77.94
2018-05-29T05:46:57.007Z,77.52
2018-05-29T05:49:25.153Z,77.56
2018-05-29T05:51:53.266Z,77.35
2018-05-29T05:54:21.411Z,77.34
2018-05-29T05:56:49.521Z,76.87
2018-05-29T05:59:17.691Z,77.06
2018-05-29T06:01:45.885Z,76.68
2018-05-29T06:04:13.999Z,76.41
2018-05-29T06:06:42.123Z,77.12
2018-05-29T06:09:10.269Z,79.37
2018-05-29T06:11:38.401Z,78.50
2018-05-29T06:14:06.518Z,77.81
2018-05-29T06:16:34.656Z,79.10
2018-05-29T06:19:02.783Z,79.40
2018-05-29T06:21:31.131Z,78.76
2018-05-29T06:23:59.249Z,79.98
2018-05-29T06:26:27.411Z,77.10
2018-05-29T06:28:55.521Z,76.33
2018-05-29T06:31:23.625Z,78.18
2018-05-29T06:33:51.745Z,76.89
2018-05-29T06:36:19.854Z,76.37
2018-05-29T06:38:47.983Z,78.01
2018-05-29T06:41:16.091Z,78.16
2018-05-29T06:43:44.271Z,77.88
2018-05-29T06:46:12.383Z,77.72
2018-05-29T06:48:40.526Z,77.07
2018-05-29T06:51:08.658Z,77.63
2018-05-29T06:53:37.619Z,77.31
2018-05-29T06:56:05.748Z,76.81
2018-05-29T06:58:33.870Z,76.33
2018-05-29T07:01:01.994Z,75.75
2018-05-29T07:03:30.214Z,75.19
2018-05-29T07:05:58.354Z,74.81
2018-05-29T07:08:26.466Z,76.42
2018-05-29T07:10:54.596Z,75.73
2018-05-29T07:13:22.718Z,75.31
2018-05-29T07:15:50.826Z,75.96
2018-05-29T07:18:18.972Z,75.91
2018-05-29T07:20:47.088Z,74.52
2018-05-29T07:23:15.226Z,74.35
2018-05-29T07:25:43.382Z,75.86
2018-05-29T07:28:11.527Z,75.34
2018-05-29T07:30:39.642Z,74.09
2018-05-29T07:33:07.787Z,73.12
2018-05-29T07:35:35.949Z,73.91
2018-05-29T07:38:04.066Z,73.67
2018-05-29T07:40:32.240Z,73.45
2018-05-29T07:43:00.330Z,73.55
2018-05-29T07:45:28.468Z,73.92
2018-05-29T07:47:56.592Z,72.73
2018-05-29T07:50:24.743Z,73.20
2018-05-29T07:52:52.842Z,72.17
2018-05-29T07:55:21.028Z,71.93
2018-05-29T07:57:49.150Z,71.72
2018-05-29T08:00:17.256Z,70.37
2018-05-29T08:02:45.390Z,68.38
2018-05-29T08:05:13.520Z,66.59
2018-05-29T08:07:41.646Z,67.83
2018-05-29T08:10:09.769Z,66.61
2018-05-29T08:12:38.027Z,66.10
2018-05-29T08:15:06.140Z,64.05
2018-05-29T08:17:34.246Z,65.28
2018-05-29T08:20:02.384Z,63.80
2018-05-29T08:22:30.503Z,64.84
2018-05-29T08:24:58.626Z,63.79
2018-05-29T08:27:26.756Z,65.41
2018-05-29T08:29:54.892Z,64.46
2018-05-29T08:32:23.011Z,64.46
2018-05-29T08:34:51.161Z,64.75
2018-05-29T08:37:19.294Z,63.59
2018-05-29T08:39:47.412Z,63.89
2018-05-29T08:42:15.548Z,63.87
2018-05-29T08:44:43.661Z,62.54
2018-05-29T08:47:11.789Z,64.52
2018-05-29T08:49:39.902Z,63.38
2018-05-29T08:52:09.983Z,62.90
2018-05-29T08:54:38.400Z,61.93
2018-05-29T08:57:06.611Z,62.31
2018-05-29T08:59:34.760Z,61.22
2018-05-29T09:02:02.906Z,62.10
2018-05-29T09:04:31.071Z,62.00
2018-05-29T09:06:59.211Z,60.63
2018-05-29T09:09:27.378Z,60.79
2018-05-29T10:05:34.885Z,52.88
2018-05-29T10:08:03.042Z,50.54
2018-05-29T10:10:31.205Z,52.67
2018-05-29T10:12:59.408Z,52.06
2018-05-29T10:15:27.561Z,52.94
2018-05-29T10:17:55.706Z,53.75
2018-05-29T10:20:23.888Z,54.67
2018-05-29T10:22:52.069Z,53.92
2018-05-29T10:25:20.254Z,51.10
2018-05-29T10:27:48.397Z,48.86
2018-05-29T10:30:16.570Z,50.86
2018-05-29T10:32:44.728Z,50.23
2018-05-29T10:35:12.937Z,50.33
2018-05-29T10:37:41.098Z,51.03
2018-05-29T10:40:09.268Z,51.23
2018-05-29T10:42:37.857Z,51.43
2018-05-29T10:45:06.017Z,51.63
2018-05-29T10:47:34.193Z,52.22
2018-05-29T10:50:02.337Z,50.13
2018-05-29T10:52:30.509Z,50.02
2018-05-29T10:54:58.657Z,51.11
2018-05-29T10:57:26.862Z,51.84
2018-05-29T10:59:55.029Z,52.45
2018-05-29T11:02:23.178Z,53.64
2018-05-29T11:04:51.340Z,52.29
2018-05-29T11:07:20.451Z,51.66
2018-05-29T11:09:50.965Z,52.32
2018-05-29T11:12:19.101Z,47.80
2018-05-29T11:14:47.289Z,49.72
2018-05-29T11:17:16.058Z,51.55
2018-05-29T11:19:44.217Z,50.67
2018-05-29T11:22:13.370Z,51.54
2018-05-29T11:24:41.549Z,52.05
2018-05-29T11:27:11.487Z,51.37
2018-05-29T11:29:46.193Z,48.91
2018-05-29T11:32:20.610Z,51.65
2018-05-29T11:34:48.799Z,51.68
2018-05-29T11:37:16.964Z,53.28
2018-05-29T11:39:45.099Z,51.16
2018-05-29T11:42:13.650Z,51.59
2018-05-29T11:44:41.809Z,54.99
2018-05-29T11:47:09.968Z,52.97
2018-05-29T11:49:38.137Z,50.55
2018-05-29T11:54:57.569Z,51.83
2018-05-29T11:57:25.721Z,49.73
2018-05-29T11:59:53.899Z,51.55
2018-05-29T12:02:23.281Z,52.34
2018-05-29T12:04:51.449Z,50.48
2018-05-29T12:07:19.624Z,53.20
2018-05-29T12:09:50.920Z,52.80
2018-05-29T12:12:25.748Z,49.21
2018-05-29T12:14:53.915Z,49.82
2018-05-29T12:17:23.747Z,47.20
2018-05-29T12:19:51.905Z,49.16
2018-05-29T12:22:20.117Z,46.12
2018-05-29T12:24:48.317Z,44.26
2018-05-29T12:27:17.493Z,46.02
2018-05-29T12:29:45.657Z,47.00
2018-05-29T12:32:13.813Z,45.43
2018-05-29T12:34:41.969Z,39.48
2018-05-29T12:37:14.592Z,43.80
2018-05-29T12:39:42.751Z,43.32
2018-05-29T12:42:10.935Z,39.92
2018-05-29T12:44:39.125Z,39.49
2018-05-29T12:47:07.329Z,43.72
2018-05-29T12:49:35.497Z,41.95
2018-05-29T12:52:03.673Z,44.27
2018-05-29T12:54:32.706Z,40.22
2018-05-29T12:57:00.881Z,40.50
2018-05-29T12:59:29.054Z,39.23
2018-05-29T13:01:57.195Z,41.83
2018-05-29T13:04:26.343Z,41.36
2018-05-29T13:06:58.492Z,43.17
2018-05-29T13:09:26.681Z,40.85
2018-05-29T13:11:54.838Z,45.88
2018-05-29T13:14:25.785Z,40.13
2018-05-29T13:16:54.342Z,45.05
2018-05-29T13:19:22.521Z,42.83
2018-05-29T13:21:50.674Z,42.31
2018-05-29T13:24:18.817Z,42.74
2018-05-29T13:26:46.970Z,45.52
2018-05-29T13:29:15.125Z,46.45
2018-05-29T13:31:44.035Z,44.58
2018-05-29T13:34:13.649Z,45.20
2018-05-29T13:36:41.822Z,42.48
2018-05-29T13:39:14.165Z,44.77
2018-05-29T13:41:42.301Z,45.11
2018-05-29T13:44:17.245Z,46.04
2018-05-29T13:46:45.438Z,44.54
2018-05-29T13:49:13.636Z,39.77
2018-05-29T13:51:41.764Z,42.41
2018-05-29T13:54:09.935Z,42.55
2018-05-29T13:56:38.097Z,40.41
2018-05-29T13:59:06.278Z,38.85
2018-05-29T14:01:34.434Z,39.06
2018-05-29T14:04:02.629Z,40.76
2018-05-29T14:06:32.317Z,40.00
2018-05-29T14:09:01.999Z,40.62
2018-05-29T14:11:30.103Z,41.31
2018-05-29T14:13:58.262Z,42.29
2018-05-29T14:16:27.438Z,42.60
2018-05-29T14:18:55.616Z,40.40
2018-05-29T14:21:23.842Z,40.70
2018-05-29T14:23:52.000Z,41.57
2018-05-29T14:26:20.162Z,42.24
2018-05-29T14:28:48.295Z,43.48
2018-05-29T14:31:16.476Z,44.33
2018-05-29T14:33:44.650Z,41.96
2018-05-29T14:49:34.376Z,39.23
2018-05-29T14:52:04.019Z,39.08
2018-05-29T14:54:32.411Z,38.62
2018-05-29T14:57:07.096Z,40.84
2018-05-29T14:59:38.205Z,37.22
2018-05-29T15:02:10.003Z,40.38
2018-05-29T15:04:39.657Z,38.80
2018-05-29T15:07:08.881Z,41.57
2018-05-29T15:09:37.194Z,40.34
2018-05-29T15:12:06.229Z,41.86
2018-05-29T15:14:34.540Z,41.17
2018-05-29T15:17:02.868Z,43.52
2018-05-29T15:19:31.774Z,39.73
2018-05-29T15:22:02.914Z,44.71
2018-05-29T15:24:34.481Z,44.10
2018-05-29T15:27:02.793Z,40.01
2018-05-29T15:29:32.696Z,40.82
2018-05-29T15:32:02.708Z,40.11
2018-05-29T15:34:32.792Z,37.51
2018-05-29T15:37:04.503Z,38.71
2018-05-29T15:39:32.878Z,38.66
2018-05-29T15:42:02.269Z,37.83
2018-05-29T15:44:30.564Z,37.03
2018-05-29T15:47:00.652Z,37.79
2018-05-29T15:49:28.923Z,38.95
2018-05-29T15:51:57.535Z,40.61
2018-05-29T15:54:26.629Z,37.94
2018-05-29T15:56:54.892Z,40.25
2018-05-29T15:59:26.834Z,42.86
2018-05-29T16:01:55.059Z,41.23
2018-05-29T16:04:27.067Z,40.75
2018-05-29T16:06:55.496Z,40.21
2018-05-29T16:09:23.899Z,38.26
2018-05-29T16:11:53.297Z,39.99
2018-05-29T16:14:22.362Z,38.20
2018-05-29T16:16:50.737Z,38.69
2018-05-29T16:19:21.551Z,38.57
2018-05-29T16:21:49.822Z,39.19
2018-05-29T16:24:22.902Z,40.82
2018-05-29T16:26:51.215Z,41.88
2018-05-29T16:29:21.217Z,41.91
2018-05-29T16:31:50.312Z,42.58
2018-05-29T16:34:20.463Z,42.52
2018-05-29T16:36:48.753Z,42.58
2018-05-29T16:39:18.689Z,42.75
2018-05-29T16:41:48.718Z,43.62
2018-05-29T16:44:16.979Z,43.46
2018-05-29T16:46:45.234Z,45.58
2018-05-29T16:49:15.185Z,46.14
2018-05-29T16:51:44.238Z,45.57
2018-05-29T16:54:12.558Z,46.87
2018-05-29T16:56:41.594Z,47.17
2018-05-29T16:59:09.908Z,47.48
2018-05-29T17:01:38.254Z,47.24
2018-05-29T17:04:07.263Z,48.57
2018-05-29T17:06:35.758Z,48.16
2018-05-29T17:09:04.215Z,47.34
2018-05-29T17:11:33.225Z,46.69
2018-05-29T17:14:01.534Z,47.91
2018-05-29T17:16:29.820Z,47.94
2018-05-29T17:18:58.906Z,48.20
2018-05-29T17:21:29.105Z,48.93
2018-05-29T17:24:02.329Z,49.62
2018-05-29T17:26:32.337Z,49.83
2018-05-29T17:29:01.339Z,50.58
2018-05-29T17:31:30.390Z,50.92
2018-05-29T17:34:00.453Z,50.99
2018-05-29T17:36:30.975Z,50.88
2018-05-29T17:39:07.429Z,50.02
2018-05-29T17:41:39.333Z,51.25
2018-05-29T17:44:09.407Z,51.16
2018-05-29T17:46:39.351Z,52.00
2018-05-29T17:49:08.405Z,51.72
2018-05-29T17:51:37.005Z,52.40
2018-05-29T17:54:06.915Z,53.25
2018-05-29T17:56:37.139Z,52.46
2018-05-29T17:59:06.939Z,52.02
2018-05-29T18:01:37.668Z,52.22
2018-05-29T18:04:08.399Z,52.75
2018-05-29T18:06:38.051Z,52.83
2018-05-29T18:09:10.303Z,55.06
2018-05-29T18:11:47.786Z,56.07
2018-05-29T18:14:17.997Z,54.95
2018-05-29T18:16:46.368Z,54.84
2018-05-29T18:19:14.841Z,54.41
2018-05-29T18:21:45.407Z,54.25
2018-05-29T18:24:15.201Z,54.82
2018-05-29T18:26:44.414Z,55.71
2018-05-29T18:29:14.512Z,56.06
2018-05-29T18:31:45.970Z,55.92
2018-05-29T18:34:14.402Z,56.52
2018-05-29T18:36:42.727Z,55.61
2018-05-29T18:39:12.734Z,55.51
2018-05-29T18:41:41.030Z,56.05
2018-05-29T18:44:09.655Z,55.33
2018-05-29T18:46:38.046Z,54.97
2018-05-29T18:49:06.480Z,55.80
2018-05-29T18:51:34.820Z,55.87
2018-05-29T18:54:03.185Z,56.13
2018-05-29T18:56:32.280Z,55.70
2018-05-29T18:59:02.404Z,55.91
2018-05-29T19:01:31.472Z,55.77
2018-05-29T19:04:00.497Z,56.43
2018-05-29T19:06:30.639Z,56.77
2018-05-29T19:08:58.997Z,57.17
2018-05-29T19:11:29.231Z,57.49
2018-05-29T19:13:57.517Z,58.03
2018-05-29T19:16:26.547Z,58.39
2018-05-29T19:18:54.872Z,60.57
2018-05-29T19:21:28.056Z,60.86
2018-05-29T19:23:56.411Z,61.77
2018-05-29T19:26:26.460Z,62.75
2018-05-29T19:28:58.884Z,62.74
2018-05-29T19:31:28.935Z,63.26
2018-05-29T19:33:57.779Z,63.85
2018-05-29T19:36:26.128Z,63.51
2018-05-29T19:38:55.246Z,63.82
2018-05-29T19:41:23.956Z,64.06
2018-05-29T19:43:54.877Z,63.74
2018-05-29T19:46:26.671Z,63.56
2018-05-29T19:48:55.001Z,63.93
2018-05-29T19:51:23.340Z,63.98
2018-05-29T19:53:53.247Z,63.63
2018-05-29T19:56:24.860Z,63.24
2018-05-29T19:58:55.046Z,63.50
2018-05-29T20:01:23.449Z,63.36
2018-05-29T20:03:53.441Z,63.25
2018-05-29T20:06:22.574Z,63.81
2018-05-29T20:08:51.689Z,63.24
2018-05-29T20:11:27.530Z,62.69
2018-05-29T20:13:57.699Z,62.41
2018-05-29T20:16:25.978Z,62.67
2018-05-29T20:18:55.989Z,62.74
2018-05-29T20:21:26.116Z,62.86
2018-05-29T20:23:54.496Z,63.11
2018-05-29T20:26:25.647Z,63.20
2018-05-29T20:28:54.726Z,63.99
2018-05-29T20:31:23.038Z,63.80
2018-05-29T20:33:53.047Z,63.84
2018-05-29T20:36:22.123Z,64.10
2018-05-29T20:38:50.405Z,64.18
2018-05-29T20:41:20.513Z,63.99
2018-05-29T20:43:48.881Z,64.25
2018-05-29T20:46:17.144Z,64.93
2018-05-29T20:48:46.209Z,65.46
2018-05-29T20:51:16.677Z,65.65
2018-05-29T20:53:44.948Z,66.05
2018-05-29T20:56:14.793Z,66.26
2018-05-29T20:58:43.814Z,66.61
2018-05-29T21:01:12.113Z,66.75
2018-05-29T21:03:40.426Z,67.08
2018-05-29T21:06:08.865Z,67.10
2018-05-29T21:08:37.201Z,67.09
2018-05-29T21:11:05.629Z,67.28
2018-05-29T21:13:36.649Z,67.21
2018-05-29T21:16:07.983Z,66.95
2018-05-29T21:18:37.090Z,67.54
2018-05-29T21:21:06.628Z,67.58
2018-05-29T21:23:36.045Z,67.80
2018-05-29T21:26:06.947Z,68.21
2018-05-29T21:28:35.343Z,67.71
2018-05-29T21:31:05.341Z,68.18
2018-05-29T21:33:35.386Z,67.81
2018-05-29T21:36:05.235Z,67.77
2018-05-29T21:38:33.517Z,68.26
2018-05-29T21:41:04.873Z,67.60
2018-05-29T21:43:33.135Z,67.46
2018-05-29T21:46:01.483Z,67.32
2018-05-29T21:48:30.535Z,67.29
2018-05-29T21:51:00.571Z,68.31
2018-05-29T21:53:28.887Z,67.94
2018-05-29T21:55:57.155Z,67.95
2018-05-29T21:58:25.468Z,68.16
2018-05-29T22:00:54.469Z,67.57
2018-05-29T22:03:25.345Z,67.60
2018-05-29T22:05:53.708Z,67.85
2018-05-29T22:08:22.034Z,68.06
2018-05-29T22:10:50.885Z,68.15
2018-05-29T22:13:19.170Z,68.28
2018-05-29T22:15:47.503Z,67.15
2018-05-29T22:18:16.537Z,67.09
2018-05-29T22:20:45.530Z,67.51
2018-05-29T22:23:15.462Z,67.39
2018-05-29T22:25:44.554Z,66.90
2018-05-29T22:28:14.468Z,66.14
2018-05-29T22:30:44.509Z,66.72
2018-05-29T22:33:14.591Z,68.08
2018-05-29T22:35:43.611Z,69.46
2018-05-29T22:38:12.740Z,70.71
2018-05-29T22:40:43.594Z,71.88
2018-05-29T22:43:11.904Z,71.87
2018-05-29T22:45:40.225Z,73.31
2018-05-29T22:48:09.240Z,73.35
2018-05-29T22:50:37.629Z,75.02
2018-05-29T22:53:07.786Z,75.53
2018-05-29T22:55:36.049Z,76.21
2018-05-29T22:58:05.055Z,76.47
2018-05-29T23:00:34.106Z,77.31
2018-05-29T23:03:02.519Z,77.99
2018-05-29T23:05:33.343Z,76.61
2018-05-29T23:08:04.192Z,76.56
2018-05-29T23:10:39.627Z,76.87
2018-05-29T23:13:07.951Z,77.19
2018-05-29T23:15:36.206Z,77.50
2018-05-29T23:18:04.569Z,78.43
2018-05-29T23:20:32.859Z,77.54
2018-05-29T23:23:02.918Z,79.18
2018-05-29T23:25:31.183Z,78.45
2018-05-29T23:28:01.994Z,78.06
2018-05-29T23:30:30.274Z,78.62
2018-05-29T23:33:00.292Z,78.50
2018-05-29T23:35:30.414Z,78.61
2018-05-29T23:37:58.714Z,78.87
2018-05-29T23:40:27.070Z,80.17
2018-05-29T23:42:55.476Z,80.61
2018-05-29T23:45:26.354Z,80.93
2018-05-29T23:47:54.614Z,81.36
2018-05-29T23:50:26.080Z,81.87
2018-05-29T23:52:56.046Z,82.82
2018-05-29T23:55:25.040Z,83.03
2018-05-29T23:57:55.001Z,83.46
